Decoded Metar for KSTL (ST. LOUIS in MO, USA) (IATA:STL) | Meteo·Mobile Aviation Weather
aviador You're here:

KSTL Decoded Metar

ST. LOUIS in MO, USA
Report Time2018-09-21 11:51:00
UTC Time2018-09-21 12:38:16
Flight Rules vfr VFR
Wind240° at 14 kt
W.Decomp.*RWY 24: 14.0 kt HW 0.2 kt RCW
RWY 29: 9.2 kt HW 10.6 kt LCW
RWY 30: 7.2 kt HW 12 kt LCW
W.Rank240° ranks 24
Current wind is above 240° avg. (8.1)
Visibility9999 m
Phenomena:Light Rain
Clouds:Few 060 Hf
Broken 095 Hf
Broken 250 Hf
Expected CloudBase > 800 ft AGL from Temp-Dew spread
Ceiling9,500 ft
Temp24°C (ISA +10)
Dew Point22°C (89% RH)
AAT23.7°C
QNH1015 hPa
Density Alt2,018 ft
Elevation561 ft
Report Wrong Elevation
Raw Report
KSTL 211151Z 24014KT 8SM -RA FEW060 BKN095 BKN250 24/22 A2997 RMK
AO2 PK WND 25030/1057 RAE1059B08 TSB02E21 SLP134 P0002 60005
70005 T02390222 10278 20239 53014=

Extra information for KSTL:More info

Metar Taf Metar & Taf Last 4 Metars F.Rules Stats Wind Profile Meteogram Temp Stats Airport Information Weather charts Add Link Nearby VenuesMetar ALERT Operation Metar Decoded Social comments

AIRNAV info for KSTL